Time;durP1;ratioP1;P1;durP2;ratioP2;P2;SDS_P1;SDS_P2;PMS_P1;PMS_P2;Temp;Humidity;BMP_temperature;BMP_pressure;BME280_temperature;BME280_humidity;BME280_pressure;Samples;Min_cycle;Max_cycle;Signal;HPM_P1;HPM_P2
2022/04/05 00:01:11;;;;;;;6.95;6.55;;;8.10;40.10;;;;;;20628;6802;337363;-70
2022/04/05 00:03:36;;;;;;;7.30;6.80;;;8.40;39.70;;;;;;20634;6802;307624;-70
2022/04/05 00:06:02;;;;;;;6.50;6.10;;;8.60;39.20;;;;;;20830;6802;117761;-70
2022/04/05 00:08:27;;;;;;;6.97;6.47;;;8.50;39.70;;;;;;20630;6803;321223;-70
2022/04/05 00:10:53;;;;;;;6.40;6.00;;;8.50;39.50;;;;;;20846;6803;117063;-70
2022/04/05 00:13:19;;;;;;;7.05;6.62;;;8.40;40.00;;;;;;20632;6803;320080;-70
2022/04/05 00:15:44;;;;;;;6.60;6.10;;;8.40;39.70;;;;;;20852;6803;117129;-70
2022/04/05 00:18:10;;;;;;;7.17;6.67;;;8.30;40.20;;;;;;20611;6803;336453;-70
2022/04/05 00:20:35;;;;;;;6.80;6.30;;;8.40;39.70;;;;;;20635;6803;301212;-70
2022/04/05 00:23:01;;;;;;;6.23;5.73;;;8.60;39.30;;;;;;20853;6803;116883;-70
2022/04/05 00:25:27;;;;;;;7.20;6.60;;;8.50;39.60;;;;;;20639;6803;277913;-70
2022/04/05 00:27:53;;;;;;;6.33;5.93;;;8.50;39.60;;;;;;20851;6803;117027;-70
2022/04/05 00:30:18;;;;;;;6.57;6.13;;;8.40;40.10;;;;;;20611;6803;281466;-70
2022/04/05 00:32:44;;;;;;;6.50;6.10;;;8.40;39.30;;;;;;20628;6803;337191;-70
2022/04/05 00:35:09;;;;;;;6.53;6.13;;;8.60;38.90;;;;;;20632;6803;311859;-70
2022/04/05 00:37:35;;;;;;;5.90;5.40;;;8.80;38.80;;;;;;20842;6803;117150;-70
2022/04/05 00:40:00;;;;;;;6.70;6.30;;;8.60;39.40;;;;;;20630;6803;280215;-70
2022/04/05 00:42:26;;;;;;;6.77;6.37;;;8.60;39.10;;;;;;20612;6801;278917;-70
2022/04/05 00:44:51;;;;;;;6.40;6.00;;;8.70;38.80;;;;;;20849;6802;117354;-70
2022/04/05 00:47:17;;;;;;;6.80;6.20;;;8.60;39.50;;;;;;20626;6802;307057;-70
2022/04/05 00:49:46;;;;;;;6.70;6.30;;;8.50;39.20;;;;;;20621;6802;341003;-70
2022/04/05 00:52:11;;;;;;;5.80;5.40;;;8.70;39.20;;;;;;20820;6802;117081;-70
2022/04/05 00:54:37;;;;;;;6.03;5.73;;;8.30;40.40;;;;;;20836;6802;117936;-70
2022/04/05 00:57:03;;;;;;;6.90;6.30;;;8.20;40.50;;;;;;20844;6802;122239;-70
2022/04/05 00:59:29;;;;;;;5.97;5.57;;;8.00;41.10;;;;;;20834;6802;117464;-70
2022/04/05 01:01:54;;;;;;;5.93;5.53;;;7.80;41.60;;;;;;20839;6802;116872;-70
2022/04/05 01:04:20;;;;;;;5.83;5.33;;;7.60;41.90;;;;;;20824;6802;120880;-70
2022/04/05 01:06:45;;;;;;;6.40;5.80;;;7.50;42.40;;;;;;20842;6802;117113;-70
2022/04/05 01:09:11;;;;;;;6.60;6.20;;;7.40;42.70;;;;;;20627;6802;307411;-70
2022/04/05 01:11:36;;;;;;;6.53;6.13;;;7.60;41.50;;;;;;20627;6802;307396;-70
2022/04/05 01:14:02;;;;;;;5.90;5.50;;;8.00;40.60;;;;;;20819;6802;116976;-71
2022/04/05 01:16:27;;;;;;;6.77;6.17;;;8.00;40.90;;;;;;20836;6802;117170;-70
2022/04/05 01:18:53;;;;;;;6.17;5.67;;;7.90;41.50;;;;;;20844;6802;117522;-70
2022/04/05 01:21:19;;;;;;;6.78;6.28;;;7.70;42.00;;;;;;20627;6803;336852;-70
2022/04/05 01:24:07;;;;;;;6.80;6.30;;;7.90;41.20;;;;;;20628;6803;310756;-70
2022/04/05 01:26:43;;;;;;;7.20;5.77;;;8.20;40.30;;;;;;20833;6803;117627;-70
2022/04/05 01:29:09;;;;;;;6.70;6.30;;;8.10;40.70;;;;;;20617;6803;278149;-70
2022/04/05 01:31:34;;;;;;;6.30;5.90;;;8.20;40.00;;;;;;20619;6803;312314;-70
2022/04/05 01:34:00;;;;;;;5.97;5.57;;;8.50;39.70;;;;;;20814;6803;117011;-70
2022/04/05 01:36:26;;;;;;;6.28;5.87;;;8.40;40.20;;;;;;20596;6803;306658;-70
2022/04/05 01:38:51;;;;;;;6.93;6.32;;;8.50;39.80;;;;;;20631;6803;317105;-70
2022/04/05 01:41:17;;;;;;;6.25;5.85;;;8.60;39.10;;;;;;20842;6803;117207;-70
2022/04/05 01:43:43;;;;;;;6.37;5.97;;;8.50;39.50;;;;;;20627;6803;306843;-70
2022/04/05 01:46:08;;;;;;;6.80;6.40;;;8.50;39.50;;;;;;20610;6803;341015;-70
2022/04/05 01:48:34;;;;;;;6.70;6.30;;;8.70;39.60;;;;;;20629;6803;322108;-70
2022/04/05 01:51:00;;;;;;;6.77;6.27;;;8.90;39.20;;;;;;20840;6803;122902;-70
2022/04/05 01:53:26;;;;;;;6.30;5.90;;;8.70;39.40;;;;;;20632;6801;295042;-70
2022/04/05 01:55:52;;;;;;;6.55;6.12;;;8.80;39.30;;;;;;20639;6802;336315;-70
2022/04/05 01:58:18;;;;;;;6.00;5.60;;;8.80;39.20;;;;;;20831;6802;117398;-70
2022/04/05 02:00:44;;;;;;;7.00;5.83;;;8.30;40.60;;;;;;20847;6802;117248;-70
2022/04/05 02:03:10;;;;;;;5.90;5.50;;;8.30;40.60;;;;;;20844;6802;117673;-70
2022/04/05 02:05:35;;;;;;;6.60;6.20;;;8.10;41.30;;;;;;20629;6802;281454;-70
2022/04/05 02:08:01;;;;;;;7.18;6.68;;;8.10;40.60;;;;;;20625;6802;311464;-70
2022/04/05 02:10:26;;;;;;;6.70;6.10;;;8.40;40.10;;;;;;20845;6802;117505;-70
2022/04/05 02:12:52;;;;;;;6.62;6.22;;;8.40;40.60;;;;;;20633;6802;297289;-70
2022/04/05 02:15:17;;;;;;;6.77;6.37;;;8.40;40.30;;;;;;20619;6802;341077;-70
2022/04/05 02:17:43;;;;;;;6.47;6.03;;;8.60;40.10;;;;;;20846;6802;116976;-70
2022/04/05 02:20:09;;;;;;;6.03;5.53;;;8.50;40.50;;;;;;20823;6802;117687;-69
2022/04/05 02:22:34;;;;;;;6.70;6.30;;;8.20;41.20;;;;;;20630;6802;301133;-70
2022/04/05 02:25:01;;;;;;;6.57;5.97;;;8.30;40.80;;;;;;20840;6802;117477;-70
2022/04/05 02:27:25;;;;;;;7.05;6.45;;;8.20;41.20;;;;;;20625;6802;320558;-70
2022/04/05 02:29:51;;;;;;;6.00;5.60;;;8.30;40.80;;;;;;20840;6802;117388;-70
2022/04/05 02:32:16;;;;;;;6.60;6.10;;;8.20;41.20;;;;;;20821;6803;117084;-70
2022/04/05 02:34:42;;;;;;;6.73;6.23;;;8.00;41.90;;;;;;20847;6803;121051;-70
2022/04/05 02:37:08;;;;;;;6.80;6.12;;;7.60;42.70;;;;;;20834;6803;117050;-69
2022/04/05 02:39:35;;;;;;;6.97;6.37;;;7.80;42.10;;;;;;20636;6803;336113;-70
2022/04/05 02:42:00;;;;;;;6.82;6.43;;;7.80;42.10;;;;;;20637;6803;277557;-70
2022/04/05 02:44:26;;;;;;;6.68;6.28;;;8.10;41.40;;;;;;20616;6803;306690;-69
2022/04/05 02:46:51;;;;;;;7.37;6.87;;;8.40;40.70;;;;;;20632;6803;315454;-69
2022/04/05 02:49:17;;;;;;;5.77;5.37;;;8.60;40.20;;;;;;20839;6803;117023;-70
2022/04/05 02:51:42;;;;;;;6.43;5.90;;;8.50;40.80;;;;;;20845;6803;117135;-70
2022/04/05 02:54:08;;;;;;;6.72;6.32;;;8.20;41.50;;;;;;20612;6803;335537;-70
2022/04/05 02:56:34;;;;;;;6.95;6.40;;;8.20;41.20;;;;;;20843;6803;117122;-70
2022/04/05 02:58:59;;;;;;;7.22;6.62;;;8.10;41.60;;;;;;20618;6803;340254;-70
2022/04/05 03:01:25;;;;;;;5.97;5.60;;;8.20;41.20;;;;;;20840;6803;120958;-69
2022/04/05 03:03:50;;;;;;;6.80;6.30;;;8.20;41.70;;;;;;20624;6803;334565;-69
2022/04/05 03:06:16;;;;;;;7.30;6.70;;;8.20;41.30;;;;;;20610;6801;317711;-69
2022/04/05 03:08:41;;;;;;;6.47;6.00;;;8.50;41.00;;;;;;20841;6802;118245;-70
2022/04/05 03:11:07;;;;;;;6.85;6.40;;;8.40;41.30;;;;;;20628;6802;281386;-70
2022/04/05 03:13:32;;;;;;;6.17;5.63;;;8.40;41.20;;;;;;20836;6802;117455;-69
2022/04/05 03:15:58;;;;;;;6.60;6.20;;;8.30;41.60;;;;;;20624;6802;336786;-70
2022/04/05 03:18:24;;;;;;;6.82;6.32;;;8.40;41.80;;;;;;20612;6802;337433;-70
2022/04/05 03:20:49;;;;;;;6.75;6.25;;;8.60;41.30;;;;;;20843;6802;117112;-70
2022/04/05 03:23:15;;;;;;;6.10;5.60;;;8.50;41.70;;;;;;20847;6802;116901;-70
2022/04/05 03:25:41;;;;;;;6.90;6.40;;;8.20;41.70;;;;;;20626;6802;336494;-70
2022/04/05 03:28:07;;;;;;;6.60;6.20;;;8.20;41.70;;;;;;20820;6802;121632;-69
2022/04/05 03:30:34;;;;;;;7.03;6.63;;;8.30;41.80;;;;;;20627;6802;277621;-69
2022/04/05 03:32:58;;;;;;;6.77;6.20;;;8.20;41.70;;;;;;20843;6802;118194;-69
2022/04/05 03:35:24;;;;;;;7.15;6.55;;;8.20;42.10;;;;;;20630;6802;336472;-69
2022/04/05 03:37:49;;;;;;;6.87;6.37;;;8.30;41.60;;;;;;20630;6802;340998;-70
2022/04/05 03:40:15;;;;;;;7.00;6.50;;;8.50;41.60;;;;;;20612;6802;304953;-70
2022/04/05 03:42:41;;;;;;;6.37;5.93;;;8.60;41.60;;;;;;20843;6802;117602;-70
2022/04/05 03:45:07;;;;;;;6.40;5.90;;;8.60;41.60;;;;;;20851;6803;117640;-70
2022/04/05 03:47:33;;;;;;;6.77;6.33;;;8.30;42.20;;;;;;20635;6803;307731;-69
2022/04/05 03:49:58;;;;;;;7.93;6.10;;;8.30;41.70;;;;;;20853;6803;122838;-70
2022/04/05 03:52:25;;;;;;;6.90;6.50;;;8.30;42.20;;;;;;20612;6803;308409;-70
2022/04/05 03:54:50;;;;;;;6.80;6.40;;;8.40;41.90;;;;;;20640;6803;281738;-69
2022/04/05 03:57:17;;;;;;;6.90;6.40;;;8.80;40.80;;;;;;20633;6803;336489;-70
2022/04/05 03:59:42;;;;;;;6.83;6.23;;;8.80;40.80;;;;;;20848;6803;116979;-69
2022/04/05 04:02:08;;;;;;;6.57;6.00;;;8.70;41.30;;;;;;20839;6803;120993;-70
2022/04/05 04:04:33;;;;;;;6.80;6.30;;;8.40;42.00;;;;;;20632;6803;307944;-70
2022/04/05 04:06:59;;;;;;;6.43;6.03;;;8.40;41.60;;;;;;20639;6803;278050;-70
2022/04/05 04:09:25;;;;;;;6.53;6.12;;;8.60;41.00;;;;;;20632;6803;278383;-70
2022/04/05 04:11:50;;;;;;;6.93;6.40;;;8.90;40.70;;;;;;20636;6803;277500;-69
2022/04/05 04:14:16;;;;;;;6.40;5.90;;;9.10;39.90;;;;;;20613;6803;306577;-70
2022/04/05 04:16:42;;;;;;;6.50;6.00;;;9.10;39.90;;;;;;20849;6801;118154;-70
2022/04/05 04:19:08;;;;;;;5.73;5.33;;;8.90;40.50;;;;;;20853;6802;117330;-72
2022/04/05 04:21:33;;;;;;;6.43;6.03;;;8.50;41.20;;;;;;20630;6802;315507;-70
2022/04/05 04:23:59;;;;;;;6.03;5.53;;;8.80;40.50;;;;;;20646;6802;277872;-71
2022/04/05 04:26:25;;;;;;;6.00;5.60;;;8.80;40.50;;;;;;20836;6802;117872;-71
2022/04/05 04:28:50;;;;;;;6.47;5.95;;;8.70;41.00;;;;;;20637;6802;336453;-70
2022/04/05 04:31:16;;;;;;;5.35;5.05;;;8.70;40.40;;;;;;20844;6802;117330;-70
2022/04/05 04:33:42;;;;;;;6.37;5.87;;;8.60;41.00;;;;;;20841;6802;117719;-68
2022/04/05 04:36:07;;;;;;;6.63;6.17;;;8.30;41.60;;;;;;20614;6802;307876;-68
2022/04/05 04:38:33;;;;;;;6.60;6.20;;;8.70;40.90;;;;;;20630;6802;277924;-69
2022/04/05 04:40:59;;;;;;;5.90;5.40;;;8.70;40.90;;;;;;20833;6802;117507;-68
2022/04/05 04:43:27;;;;;;;5.82;5.32;;;8.60;41.30;;;;;;20845;6802;117065;-70
2022/04/05 04:45:52;;;;;;;6.20;5.73;;;8.40;41.90;;;;;;20828;6802;117217;-69
2022/04/05 04:48:19;;;;;;;5.87;5.37;;;7.90;43.10;;;;;;20813;6802;122634;-69
2022/04/05 04:50:43;;;;;;;5.40;5.00;;;7.90;43.10;;;;;;20839;6802;117705;-66
2022/04/05 04:53:09;;;;;;;6.50;5.95;;;7.80;43.70;;;;;;20842;6802;117101;-72
2022/04/05 04:55:34;;;;;;;6.73;6.13;;;7.60;44.10;;;;;;20847;6803;117002;-67
2022/04/05 04:58:00;;;;;;;5.93;5.50;;;7.50;44.60;;;;;;20858;6803;117087;-67
2022/04/05 05:00:26;;;;;;;6.75;6.35;;;7.40;44.90;;;;;;20625;6803;278539;-67
2022/04/05 05:02:51;;;;;;;6.60;6.10;;;7.60;45.00;;;;;;20862;6803;120251;-67
2022/04/05 05:05:18;;;;;;;6.60;6.20;;;7.90;44.50;;;;;;20629;6803;305743;-70
2022/04/05 05:07:47;;;;;;;6.60;6.10;;;7.90;44.50;;;;;;20630;6803;281261;-67
2022/04/05 05:10:11;;;;;;;6.20;5.80;;;8.20;43.90;;;;;;20799;6803;117127;-68
2022/04/05 05:12:34;;;;;;;6.37;5.78;;;8.20;44.00;;;;;;20844;6803;117638;-68
2022/04/05 05:15:02;;;;;;;6.68;6.28;;;8.00;44.40;;;;;;20635;6803;310004;-67
2022/04/05 05:17:25;;;;;;;6.07;5.67;;;8.10;44.30;;;;;;20830;6803;116916;-67
2022/04/05 05:19:51;;;;;;;6.87;6.27;;;8.10;44.40;;;;;;20634;6803;306485;-67
2022/04/05 05:22:17;;;;;;;7.83;6.10;;;8.20;43.70;;;;;;20614;6803;306530;-68
2022/04/05 05:24:42;;;;;;;5.83;5.43;;;8.40;42.90;;;;;;20846;6803;117570;-66
2022/04/05 05:27:08;;;;;;;7.00;6.50;;;8.40;43.20;;;;;;20638;6803;277458;-66
2022/04/05 05:29:33;;;;;;;6.37;5.53;;;8.50;43.70;;;;;;20847;6801;117146;-66
2022/04/05 05:31:59;;;;;;;6.25;5.78;;;8.40;44.00;;;;;;20857;6802;117665;-66
2022/04/05 05:34:24;;;;;;;6.67;6.07;;;8.20;45.00;;;;;;20830;6802;122647;-66
2022/04/05 05:36:50;;;;;;;6.15;5.55;;;7.90;44.70;;;;;;20852;6802;116996;-65
2022/04/05 05:39:15;;;;;;;5.77;5.33;;;7.70;45.10;;;;;;20844;6802;117179;-66
2022/04/05 05:41:41;;;;;;;6.10;5.60;;;7.60;45.40;;;;;;20844;6802;118186;-65
2022/04/05 05:44:07;;;;;;;6.27;5.80;;;7.60;45.80;;;;;;20612;6802;307910;-66
2022/04/05 05:46:32;;;;;;;6.62;6.12;;;7.80;45.30;;;;;;20633;6802;309597;-65
2022/04/05 05:48:58;;;;;;;6.57;6.00;;;8.20;44.40;;;;;;20632;6802;280639;-66
2022/04/05 05:51:23;;;;;;;6.03;5.63;;;8.50;43.50;;;;;;20841;6802;123349;-65
2022/04/05 05:53:49;;;;;;;5.33;5.03;;;8.50;43.80;;;;;;20840;6802;116964;-67
2022/04/05 05:56:14;;;;;;;5.23;4.83;;;8.20;44.20;;;;;;20826;6802;117489;-67
2022/04/05 05:58:40;;;;;;;6.20;5.70;;;8.00;44.60;;;;;;20638;6802;307297;-69
2022/04/05 06:01:05;;;;;;;5.87;5.40;;;8.20;44.10;;;;;;20838;6802;116998;-67
2022/04/05 06:03:31;;;;;;;5.60;5.10;;;8.10;44.10;;;;;;20851;6802;121648;-66
2022/04/05 06:05:57;;;;;;;5.03;4.72;;;8.00;44.40;;;;;;20846;6803;116926;-66
2022/04/05 06:08:22;;;;;;;5.90;5.50;;;7.90;44.90;;;;;;20614;6803;277541;-67
2022/04/05 06:10:48;;;;;;;5.22;4.82;;;8.10;44.20;;;;;;20844;6803;117523;-70
2022/04/05 06:13:13;;;;;;;6.00;5.40;;;8.10;44.30;;;;;;20641;6803;277042;-66
2022/04/05 06:15:39;;;;;;;5.90;5.40;;;8.30;43.90;;;;;;20641;6803;286016;-67
2022/04/05 06:18:04;;;;;;;5.30;4.83;;;8.60;43.30;;;;;;20826;6803;121776;-68
2022/04/05 06:20:30;;;;;;;5.80;5.30;;;8.60;43.50;;;;;;20633;6803;278333;-67
2022/04/05 06:22:59;;;;;;;6.30;5.72;;;8.70;43.10;;;;;;20631;6803;307389;-66
2022/04/05 06:25:31;;;;;;;5.00;4.67;;;8.90;42.90;;;;;;20840;6803;117432;-67
2022/04/05 06:27:56;;;;;;;5.10;4.70;;;8.90;43.40;;;;;;20834;6803;117358;-66
2022/04/05 06:30:22;;;;;;;5.62;5.28;;;8.60;44.20;;;;;;20611;6803;278430;-67
2022/04/05 06:32:48;;;;;;;5.72;5.37;;;8.60;43.80;;;;;;20849;6803;117051;-66
2022/04/05 06:35:14;;;;;;;5.47;5.10;;;8.60;43.80;;;;;;20844;6803;117463;-66
2022/04/05 06:37:43;;;;;;;5.70;5.30;;;8.50;44.40;;;;;;20844;6803;117415;-66
2022/04/05 06:40:05;;;;;;;4.93;4.63;;;8.30;44.90;;;;;;20807;6801;122903;-66
2022/04/05 06:42:31;;;;;;;5.03;4.63;;;8.20;45.30;;;;;;20839;6802;117988;-66
2022/04/05 06:44:56;;;;;;;5.20;4.80;;;8.10;45.50;;;;;;20837;6802;116880;-66
2022/04/05 06:47:22;;;;;;;5.53;5.12;;;8.10;45.80;;;;;;20627;6802;307944;-66
2022/04/05 06:49:47;;;;;;;4.93;4.57;;;8.30;44.90;;;;;;20845;6802;118328;-66
2022/04/05 06:52:14;;;;;;;6.07;5.50;;;8.70;44.50;;;;;;20608;6802;336001;-66
2022/04/05 06:54:39;;;;;;;5.20;4.70;;;8.70;44.50;;;;;;20843;6802;117731;-66
2022/04/05 06:57:05;;;;;;;5.03;4.73;;;8.50;45.00;;;;;;20844;6802;117708;-66
2022/04/05 06:59:31;;;;;;;5.53;5.13;;;8.50;44.80;;;;;;20631;6802;312353;-67
2022/04/05 07:01:57;;;;;;;4.78;4.43;;;8.70;44.30;;;;;;20846;6802;120903;-67
2022/04/05 07:04:22;;;;;;;4.97;4.53;;;8.70;44.40;;;;;;20821;6802;123744;-66
2022/04/05 07:06:48;;;;;;;4.60;4.30;;;8.70;44.90;;;;;;20851;6802;116991;-67
2022/04/05 07:09:14;;;;;;;4.87;4.47;;;8.50;45.30;;;;;;20844;6802;117277;-66
2022/04/05 07:11:40;;;;;;;5.62;5.18;;;8.70;44.90;;;;;;20639;6802;306998;-66
2022/04/05 07:14:06;;;;;;;6.60;6.07;;;8.70;44.90;;;;;;20833;6802;150641;-67
2022/04/05 07:16:31;;;;;;;7.33;6.60;;;8.90;45.10;;;;;;20846;6802;117088;-66
2022/04/05 07:18:58;;;;;;;9.37;8.47;;;8.70;45.30;;;;;;20849;6803;117331;-66
2022/04/05 07:21:23;;;;;;;8.07;7.40;;;8.70;45.30;;;;;;20632;6803;277511;-66
2022/04/05 07:23:50;;;;;;;8.43;7.83;;;9.30;43.50;;;;;;20632;6803;307323;-66
2022/04/05 07:26:15;;;;;;;7.05;6.50;;;9.30;43.50;;;;;;20610;6803;293083;-66
2022/04/05 07:28:41;;;;;;;5.30;4.90;;;9.60;43.00;;;;;;20844;6803;117656;-66
2022/04/05 07:31:06;;;;;;;6.18;5.68;;;9.60;43.20;;;;;;20636;6803;277060;-66
2022/04/05 07:33:33;;;;;;;6.50;6.00;;;9.60;42.90;;;;;;20847;6803;116971;-66
2022/04/05 07:35:58;;;;;;;6.73;6.23;;;9.60;42.90;;;;;;20635;6803;311203;-66
2022/04/05 07:38:27;;;;;;;5.93;5.40;;;9.70;42.30;;;;;;20822;6803;117107;-64
2022/04/05 07:40:49;;;;;;;5.82;5.28;;;9.70;43.00;;;;;;20814;6803;117055;-64
2022/04/05 07:43:15;;;;;;;4.67;4.27;;;9.50;43.60;;;;;;20846;6803;117383;-64
2022/04/05 07:45:41;;;;;;;5.05;4.55;;;9.30;44.50;;;;;;20715;6803;118615;-64
2022/04/05 07:48:08;;;;;;;5.07;4.77;;;9.30;44.40;;;;;;20830;6803;123403;-65
2022/04/05 07:50:33;;;;;;;5.03;4.73;;;9.20;45.10;;;;;;20832;6803;122003;-68
2022/04/05 07:52:59;;;;;;;5.10;4.70;;;9.20;45.10;;;;;;20852;6801;117209;-65
2022/04/05 07:55:24;;;;;;;5.07;4.67;;;9.20;45.40;;;;;;20848;6802;118150;-65
2022/04/05 07:57:51;;;;;;;6.43;5.83;;;9.20;45.90;;;;;;20862;6802;116962;-64
2022/04/05 08:00:16;;;;;;;4.63;4.33;;;9.20;45.90;;;;;;20832;6802;117864;-64
2022/04/05 08:02:42;;;;;;;5.40;5.00;;;9.20;45.90;;;;;;20640;6802;282216;-67
2022/04/05 08:05:07;;;;;;;5.67;5.27;;;9.50;44.30;;;;;;20638;6802;325760;-70
2022/04/05 08:07:33;;;;;;;4.87;4.43;;;10.00;42.50;;;;;;20842;6802;116928;-72
2022/04/05 08:09:59;;;;;;;6.30;5.90;;;10.10;42.70;;;;;;20644;6802;307287;-73
2022/04/05 08:12:24;;;;;;;5.30;4.90;;;10.30;41.90;;;;;;20591;6802;311456;-74
2022/04/05 08:14:50;;;;;;;5.18;4.87;;;10.60;41.20;;;;;;20631;6802;310969;-78
2022/04/05 08:17:16;;;;;;;5.50;5.00;;;11.00;41.10;;;;;;20609;6802;290086;-74
2022/04/05 08:19:42;;;;;;;5.37;4.97;;;11.00;40.90;;;;;;20629;6802;296158;-74
2022/04/05 08:22:10;;;;;;;5.00;4.60;;;11.10;39.90;;;;;;20810;6802;117520;-74
2022/04/05 08:24:36;;;;;;;5.10;4.70;;;10.90;40.50;;;;;;20631;6802;277114;-75
2022/04/05 08:27:01;;;;;;;4.63;4.33;;;10.90;40.60;;;;;;20841;6802;117098;-73
2022/04/05 08:29:27;;;;;;;5.90;5.40;;;10.70;41.10;;;;;;20618;6803;310579;-79
2022/04/05 08:31:52;;;;;;;4.93;4.53;;;10.70;41.30;;;;;;20833;6803;117126;-77
2022/04/05 08:34:22;;;;;;;6.20;5.70;;;10.70;42.00;;;;;;20815;6803;122650;-71
2022/04/05 08:36:48;;;;;;;5.47;5.07;;;10.50;42.40;;;;;;20844;6803;117147;-74
2022/04/05 08:39:14;;;;;;;5.63;5.27;;;10.40;43.10;;;;;;20830;6803;117251;-73
2022/04/05 08:41:39;;;;;;;5.32;4.93;;;10.30;43.50;;;;;;20831;6803;117441;-73
2022/04/05 08:44:05;;;;;;;5.83;5.43;;;10.20;43.80;;;;;;20797;6803;123689;-75
2022/04/05 08:46:31;;;;;;;7.03;6.63;;;10.50;42.70;;;;;;20619;6803;297317;-77
2022/04/05 08:48:57;;;;;;;7.32;6.68;;;10.40;42.60;;;;;;20617;6803;308237;-75
2022/04/05 08:51:23;;;;;;;5.77;5.27;;;11.20;40.80;;;;;;20607;6803;306281;-80
2022/04/05 08:53:48;;;;;;;8.00;6.70;;;11.20;40.80;;;;;;20833;6803;117212;-79
2022/04/05 08:56:15;;;;;;;10.90;9.90;;;11.10;41.00;;;;;;20601;6803;307481;-74
2022/04/05 08:58:39;;;;;;;13.13;11.82;;;11.10;41.00;;;;;;20825;6803;117477;-82
2022/04/05 09:01:06;;;;;;;7.47;6.90;;;11.20;40.90;;;;;;20609;6803;307799;-78
2022/04/05 09:03:33;;;;;;;6.90;6.40;;;11.20;41.30;;;;;;20835;6801;117194;-77
2022/04/05 09:05:57;;;;;;;5.93;5.53;;;11.10;41.60;;;;;;20836;6802;117799;-76
2022/04/05 09:08:22;;;;;;;9.13;6.47;;;10.90;42.20;;;;;;20811;6802;122856;-75
2022/04/05 09:10:52;;;;;;;6.33;5.93;;;10.80;42.90;;;;;;20612;6802;331071;-71
2022/04/05 09:13:17;;;;;;;6.90;6.40;;;10.90;42.90;;;;;;20610;6802;277934;-79
2022/04/05 09:15:42;;;;;;;6.35;5.95;;;11.20;42.40;;;;;;20610;6802;307997;-73
2022/04/05 09:18:08;;;;;;;6.90;6.30;;;11.50;42.10;;;;;;20806;6802;124603;-72
2022/04/05 09:20:46;;;;;;;5.57;5.27;;;11.50;42.50;;;;;;20815;6802;117454;-81
2022/04/05 09:23:28;;;;;;;6.97;6.57;;;11.30;42.50;;;;;;20610;6802;311807;-76
2022/04/05 09:25:58;;;;;;;5.80;5.40;;;11.40;41.90;;;;;;20618;6802;314306;-72
2022/04/05 09:28:26;;;;;;;6.00;5.30;;;11.80;40.70;;;;;;20805;6802;117550;-76
2022/04/05 09:30:51;;;;;;;6.55;5.95;;;11.90;41.30;;;;;;20583;6802;323385;-76
2022/04/05 09:33:17;;;;;;;5.28;4.82;;;12.00;40.90;;;;;;20598;6802;337251;-79
2022/04/05 09:35:44;;;;;;;8.67;8.07;;;12.30;40.00;;;;;;20621;6802;310437;-72
2022/04/05 09:38:14;;;;;;;6.33;5.83;;;12.60;39.30;;;;;;20620;6802;307143;-76
2022/04/05 09:40:38;;;;;;;10.43;9.63;;;12.80;39.20;;;;;;20634;6803;277488;-77
2022/04/05 09:43:07;;;;;;;7.00;6.40;;;12.80;39.00;;;;;;20644;6803;278454;-76
2022/04/05 09:45:45;;;;;;;18.10;16.37;;;12.90;38.30;;;;;;20610;6803;289669;-79
2022/04/05 09:48:11;;;;;;;7.30;6.70;;;13.00;38.50;;;;;;20833;6803;118095;-75
2022/04/05 09:51:00;;;;;;;6.40;5.80;;;12.70;39.50;;;;;;20843;6803;118090;-80
2022/04/05 09:53:39;;;;;;;6.00;5.60;;;12.40;39.10;;;;;;20607;6803;279556;-82
2022/04/05 09:56:07;;;;;;;5.10;4.62;;;12.30;39.60;;;;;;20541;6803;307068;-78
2022/04/05 09:58:34;;;;;;;6.17;5.77;;;12.60;39.80;;;;;;20630;6803;283758;-76
2022/04/05 10:01:00;;;;;;;5.13;4.73;;;12.70;39.30;;;;;;20623;6803;307488;-78
2022/04/05 10:03:25;;;;;;;5.47;5.07;;;12.80;39.30;;;;;;20599;6803;312313;-74
2022/04/05 10:05:51;;;;;;;4.68;4.37;;;12.90;38.70;;;;;;20833;6803;121029;-75
2022/04/05 10:08:16;;;;;;;4.90;4.60;;;12.70;39.50;;;;;;20814;6803;121059;-74
2022/04/05 10:10:42;;;;;;;5.13;4.73;;;12.40;40.40;;;;;;20625;6803;306961;-75
2022/04/05 10:13:08;;;;;;;5.32;4.93;;;12.40;40.20;;;;;;20620;6803;306953;-75
2022/04/05 10:15:34;;;;;;;6.57;5.97;;;12.50;40.00;;;;;;20845;6801;117868;-76
2022/04/05 10:17:59;;;;;;;6.17;5.63;;;12.60;40.00;;;;;;20839;6802;117228;-75
2022/04/05 10:20:25;;;;;;;4.50;4.20;;;12.30;40.70;;;;;;20830;6802;117832;-81
2022/04/05 10:22:50;;;;;;;4.47;4.17;;;12.10;41.40;;;;;;20622;6802;278715;-75
2022/04/05 10:25:16;;;;;;;4.90;4.60;;;12.20;40.60;;;;;;20620;6802;306911;-72
2022/04/05 10:27:42;;;;;;;4.32;4.03;;;12.40;40.00;;;;;;20626;6802;320634;-74
2022/04/05 10:30:11;;;;;;;4.40;4.13;;;12.60;39.70;;;;;;20850;6802;124448;-82
2022/04/05 10:32:53;;;;;;;4.10;3.80;;;12.50;40.20;;;;;;20847;6802;117863;-81
2022/04/05 10:35:21;;;;;;;5.37;4.97;;;12.20;40.60;;;;;;20296;6802;277909;-80
2022/04/05 10:37:46;;;;;;;5.10;4.70;;;12.20;40.60;;;;;;20634;6802;307003;-80
2022/04/05 10:40:12;;;;;;;4.33;4.00;;;12.40;40.60;;;;;;20833;6802;117394;-83
2022/04/05 10:42:41;;;;;;;3.70;3.50;;;12.30;41.00;;;;;;20842;6802;117410;-78
2022/04/05 10:45:16;;;;;;;5.00;4.60;;;12.00;41.30;;;;;;20632;6802;305108;-77
2022/04/05 10:47:57;;;;;;;4.03;3.73;;;12.00;41.00;;;;;;20849;6802;117193;-77
2022/04/05 10:50:23;;;;;;;4.07;3.77;;;12.00;41.70;;;;;;20835;6802;122843;-72
2022/04/05 10:52:50;;;;;;;3.97;3.65;;;11.80;42.20;;;;;;20625;6803;308209;-81
2022/04/05 10:55:20;;;;;;;4.20;3.90;;;11.90;42.00;;;;;;20759;6803;117173;-77
2022/04/05 10:57:46;;;;;;;4.00;3.70;;;11.90;42.40;;;;;;20840;6803;117803;-75
2022/04/05 11:00:23;;;;;;;5.40;4.95;;;11.70;42.70;;;;;;20823;6803;117728;-76
2022/04/05 11:02:52;;;;;;;9.30;8.40;;;11.40;43.60;;;;;;20842;6803;117573;-80
2022/04/05 11:05:27;;;;;;;5.63;5.33;;;11.40;43.60;;;;;;20853;6803;117244;-76
2022/04/05 11:08:05;;;;;;;3.53;3.33;;;11.30;44.20;;;;;;20849;6803;117459;-77
2022/04/05 11:10:37;;;;;;;3.60;3.40;;;11.20;44.50;;;;;;20850;6803;118462;-78
2022/04/05 11:13:08;;;;;;;4.05;3.80;;;11.10;44.90;;;;;;20635;6803;306021;-78
2022/04/05 11:15:41;;;;;;;4.10;3.80;;;11.30;45.00;;;;;;20845;6803;117819;-76
2022/04/05 11:18:09;;;;;;;3.33;3.13;;;11.30;44.90;;;;;;20826;6803;117632;-77
2022/04/05 11:20:38;;;;;;;3.43;3.23;;;11.20;45.00;;;;;;20840;6803;117847;-74
2022/04/05 11:23:02;;;;;;;4.03;3.75;;;11.10;45.50;;;;;;20625;6803;335515;-73
2022/04/05 11:25:27;;;;;;;3.90;3.60;;;11.30;46.20;;;;;;20625;6803;277311;-72
2022/04/05 11:27:53;;;;;;;3.50;3.30;;;11.70;45.60;;;;;;20838;6801;117050;-71
2022/04/05 11:30:28;;;;;;;3.90;3.70;;;11.70;44.80;;;;;;20596;6802;307848;-73
2022/04/05 11:33:17;;;;;;;3.33;3.13;;;11.80;44.60;;;;;;20807;6802;117193;-71
2022/04/05 11:35:57;;;;;;;3.97;3.67;;;11.80;44.80;;;;;;20827;6802;117062;-71
2022/04/05 11:38:21;;;;;;;3.00;2.77;;;11.60;45.10;;;;;;20806;6802;119823;-73
2022/04/05 11:40:48;;;;;;;5.70;3.67;;;11.10;45.20;;;;;;20835;6802;117073;-72
2022/04/05 11:43:21;;;;;;;3.60;3.30;;;11.10;45.10;;;;;;20812;6802;119068;-71
2022/04/05 11:45:45;;;;;;;4.40;4.10;;;11.00;45.60;;;;;;20621;6802;307454;-72
2022/04/05 11:48:17;;;;;;;5.47;5.18;;;11.20;46.00;;;;;;20590;6802;313207;-72
2022/04/05 11:50:43;;;;;;;4.17;3.97;;;11.50;45.70;;;;;;20835;6802;117418;-72
2022/04/05 11:53:24;;;;;;;4.23;3.93;;;11.50;45.40;;;;;;20850;6802;117160;-72
2022/04/05 11:56:10;;;;;;;4.50;4.20;;;11.30;45.70;;;;;;20631;6802;307225;-72
2022/04/05 11:58:36;;;;;;;4.17;3.97;;;11.40;45.90;;;;;;20847;6802;117559;-72
2022/04/05 12:01:03;;;;;;;4.60;4.20;;;11.40;46.00;;;;;;20634;6802;306912;-72
2022/04/05 12:03:27;;;;;;;4.33;4.03;;;11.50;46.60;;;;;;20847;6802;117058;-71
2022/04/05 12:05:53;;;;;;;3.37;3.17;;;11.30;46.70;;;;;;20852;6803;117669;-72
2022/04/05 12:08:19;;;;;;;5.12;4.82;;;11.30;46.70;;;;;;20605;6803;336768;-72
2022/04/05 12:10:44;;;;;;;4.40;4.10;;;11.40;46.30;;;;;;20634;6803;278041;-78
2022/04/05 12:13:10;;;;;;;4.27;3.97;;;11.70;46.20;;;;;;20830;6803;121534;-75
2022/04/05 12:15:36;;;;;;;4.60;4.20;;;11.80;47.10;;;;;;20628;6803;306588;-71
2022/04/05 12:18:18;;;;;;;3.93;3.63;;;11.80;46.40;;;;;;20841;6803;121388;-72
2022/04/05 12:20:57;;;;;;;4.93;4.23;;;11.80;46.20;;;;;;20844;6803;117092;-73
2022/04/05 12:23:24;;;;;;;4.53;4.30;;;11.60;46.70;;;;;;20634;6803;310610;-73
2022/04/05 12:26:23;;;;;;;4.50;4.10;;;11.70;46.60;;;;;;20628;6803;307010;-73
2022/04/05 12:28:50;;;;;;;4.90;4.50;;;12.00;46.70;;;;;;20639;6803;307881;-70
2022/04/05 12:31:18;;;;;;;5.00;4.70;;;12.30;46.40;;;;;;20851;6803;117656;-71
2022/04/05 12:33:41;;;;;;;4.50;4.20;;;12.30;46.50;;;;;;20618;6803;307015;-71
2022/04/05 12:36:06;;;;;;;3.93;3.73;;;12.30;45.50;;;;;;20841;6803;121982;-70
2022/04/05 12:38:33;;;;;;;3.83;3.63;;;12.10;46.20;;;;;;20840;6801;117496;-73
2022/04/05 12:40:59;;;;;;;4.57;4.28;;;12.20;45.30;;;;;;20630;6802;336423;-73